Time;durP1;ratioP1;P1;durP2;ratioP2;P2;SDS_P1;SDS_P2;PMS_P1;PMS_P2;Temp;Humidity;BMP_temperature;BMP_pressure;BME280_temperature;BME280_humidity;BME280_pressure;Samples;Min_cycle;Max_cycle;Signal;HPM_P1;HPM_P2
2023/01/28 00:01:10;;;;;;;5.07;2.40;;;;;;;;;;5073347;28;20035;-86
2023/01/28 00:03:37;;;;;;;5.60;2.27;;;;;;;;;;5074440;28;20040;-86
2023/01/28 00:06:03;;;;;;;5.43;2.37;;;;;;;;;;5072356;28;20028;-86
2023/01/28 00:08:28;;;;;;;4.17;2.10;;;;;;;;;;5073160;28;20016;-86
2023/01/28 00:10:53;;;;;;;3.07;1.50;;;;;;;;;;5074584;28;20332;-86
2023/01/28 00:13:18;;;;;;;3.90;1.80;;;;;;;;;;5072885;28;20027;-85
2023/01/28 00:15:44;;;;;;;5.33;2.07;;;;;;;;;;5074377;28;20025;-86
2023/01/28 00:18:09;;;;;;;4.43;2.17;;;;;;;;;;5073034;28;20028;-87
2023/01/28 00:20:34;;;;;;;4.07;2.00;;;;;;;;;;5072837;28;20448;-87
2023/01/28 00:22:59;;;;;;;3.53;1.70;;;;;;;;;;5072812;28;20016;-86
2023/01/28 00:25:25;;;;;;;3.87;2.10;;;;;;;;;;5072828;28;20070;-86
2023/01/28 00:27:50;;;;;;;5.00;2.07;;;;;;;;;;5073040;28;20112;-86
2023/01/28 00:30:18;;;;;;;4.97;1.60;;;;;;;;;;5072058;28;20099;-87
2023/01/28 00:32:43;;;;;;;8.37;2.17;;;;;;;;;;5074463;28;20035;-86
2023/01/28 00:35:09;;;;;;;5.47;2.33;;;;;;;;;;5074174;28;20387;-86
2023/01/28 00:37:35;;;;;;;4.07;2.00;;;;;;;;;;5074110;28;20336;-86
2023/01/28 00:40:00;;;;;;;5.77;2.10;;;;;;;;;;5072886;28;20482;-87
2023/01/28 00:42:26;;;;;;;4.90;2.07;;;;;;;;;;5072893;28;20109;-87
2023/01/28 00:44:51;;;;;;;5.47;2.30;;;;;;;;;;5072552;28;20182;-87
2023/01/28 00:47:16;;;;;;;5.93;2.57;;;;;;;;;;5072291;28;20028;-87
2023/01/28 00:49:41;;;;;;;6.33;2.80;;;;;;;;;;5073880;28;20009;-87
2023/01/28 00:52:07;;;;;;;4.70;2.00;;;;;;;;;;5072745;28;20016;-87
2023/01/28 00:54:32;;;;;;;5.27;2.27;;;;;;;;;;5072863;28;20414;-86
2023/01/28 00:56:57;;;;;;;5.87;2.73;;;;;;;;;;5072528;28;20530;-86
2023/01/28 00:59:22;;;;;;;4.83;2.33;;;;;;;;;;5072379;28;20047;-87
2023/01/28 01:01:47;;;;;;;8.67;2.57;;;;;;;;;;5059584;28;20481;-87
2023/01/28 01:04:13;;;;;;;5.33;2.33;;;;;;;;;;5072275;28;20116;-87
2023/01/28 01:06:39;;;;;;;6.87;3.03;;;;;;;;;;5071405;28;20025;-87
2023/01/28 01:09:05;;;;;;;6.17;2.53;;;;;;;;;;5072280;28;20567;-87
2023/01/28 01:11:31;;;;;;;8.20;2.83;;;;;;;;;;5072324;28;20100;-87
2023/01/28 01:13:57;;;;;;;5.80;2.80;;;;;;;;;;5072163;28;20051;-87
2023/01/28 01:16:24;;;;;;;5.93;2.33;;;;;;;;;;5072216;28;20017;-87
2023/01/28 01:18:51;;;;;;;6.87;2.97;;;;;;;;;;5071123;28;20035;-87
2023/01/28 01:21:17;;;;;;;6.83;2.27;;;;;;;;;;5073476;28;20025;-87
2023/01/28 01:23:42;;;;;;;6.20;2.90;;;;;;;;;;5071840;28;20422;-86
2023/01/28 01:26:08;;;;;;;4.57;2.50;;;;;;;;;;5072730;28;20021;-87
2023/01/28 01:28:33;;;;;;;4.97;2.50;;;;;;;;;;5071453;28;20028;-87
2023/01/28 01:31:00;;;;;;;4.63;2.17;;;;;;;;;;5072801;28;20013;-87
2023/01/28 01:33:26;;;;;;;5.47;2.00;;;;;;;;;;5073138;28;20135;-87
2023/01/28 01:35:53;;;;;;;7.53;2.57;;;;;;;;;;5070889;28;20025;-87
2023/01/28 01:38:18;;;;;;;4.37;2.00;;;;;;;;;;5071944;28;20028;-87
2023/01/28 01:40:43;;;;;;;8.50;2.67;;;;;;;;;;5071678;28;20105;-87
2023/01/28 01:43:14;;;;;;;3.63;1.63;;;;;;;;;;5071733;28;20016;-87
2023/01/28 01:45:39;;;;;;;4.80;2.37;;;;;;;;;;5059289;28;20028;-87
2023/01/28 01:48:08;;;;;;;6.70;2.37;;;;;;;;;;5070234;28;20348;-87
2023/01/28 01:50:38;;;;;;;6.53;2.70;;;;;;;;;;5073529;28;20016;-87
2023/01/28 01:53:07;;;;;;;5.77;2.00;;;;;;;;;;5080946;28;20031;-87
2023/01/28 01:55:33;;;;;;;5.13;1.93;;;;;;;;;;5091729;28;20047;-87
2023/01/28 01:58:01;;;;;;;5.57;2.37;;;;;;;;;;5091206;28;20020;-87
2023/01/28 02:00:27;;;;;;;5.97;2.07;;;;;;;;;;5083646;28;20056;-87
2023/01/28 02:02:53;;;;;;;8.40;2.97;;;;;;;;;;5083571;28;20032;-87
2023/01/28 02:05:19;;;;;;;6.00;2.43;;;;;;;;;;5086748;28;20031;-87
2023/01/28 02:07:45;;;;;;;6.73;2.73;;;;;;;;;;5085451;28;20021;-86
2023/01/28 02:10:11;;;;;;;5.23;2.13;;;;;;;;;;5072613;28;20020;-87
2023/01/28 02:12:39;;;;;;;7.83;2.70;;;;;;;;;;5085746;28;20046;-87
2023/01/28 02:15:16;;;;;;;7.43;2.40;;;;;;;;;;5091510;28;20046;-87
2023/01/28 02:17:41;;;;;;;3.30;1.63;;;;;;;;;;5086341;28;20079;-87
2023/01/28 02:20:08;;;;;;;6.73;2.17;;;;;;;;;;5082217;28;20422;-87
2023/01/28 02:22:33;;;;;;;5.07;1.63;;;;;;;;;;5088121;28;20040;-87
2023/01/28 02:24:58;;;;;;;4.33;2.07;;;;;;;;;;5071010;28;20093;-87
2023/01/28 02:27:50;;;;;;;4.43;2.03;;;;;;;;;;5070992;28;20016;-87
2023/01/28 02:30:21;;;;;;;5.20;2.23;;;;;;;;;;5077821;28;20032;-87
2023/01/28 02:32:52;;;;;;;6.00;2.20;;;;;;;;;;5078166;28;20119;-87
2023/01/28 02:35:23;;;;;;;5.93;2.00;;;;;;;;;;5092602;28;20490;-87
2023/01/28 02:38:09;;;;;;;6.10;2.70;;;;;;;;;;5071761;28;20016;-87
2023/01/28 02:41:00;;;;;;;5.77;2.20;;;;;;;;;;5090615;28;20035;-87
2023/01/28 02:43:33;;;;;;;5.53;2.20;;;;;;;;;;5082019;28;20028;-88
2023/01/28 02:48:45;;;;;;;4.93;2.20;;;;;;;;;;5080345;28;20097;-87
2023/01/28 02:51:19;;;;;;;8.77;2.63;;;;;;;;;;5090855;28;20429;-87
2023/01/28 02:53:50;;;;;;;5.93;2.50;;;;;;;;;;5091015;28;20024;-87
2023/01/28 02:56:37;;;;;;;6.07;2.77;;;;;;;;;;5091147;28;20081;-87
2023/01/28 02:59:30;;;;;;;7.03;2.77;;;;;;;;;;5076466;28;20107;-87
2023/01/28 03:02:03;;;;;;;6.83;2.80;;;;;;;;;;5088528;28;20023;-87
2023/01/28 03:04:32;;;;;;;6.03;1.87;;;;;;;;;;5080290;28;20089;-87
2023/01/28 03:06:59;;;;;;;7.60;3.63;;;;;;;;;;5087771;28;20394;-87
2023/01/28 03:09:25;;;;;;;7.80;2.63;;;;;;;;;;5090950;28;20527;-87
2023/01/28 03:36:52;;;;;;;6.93;2.53;;;;;;;;;;5080116;28;20498;-86
2023/01/28 03:39:18;;;;;;;8.10;2.80;;;;;;;;;;5091122;28;20027;-87
2023/01/28 03:42:04;;;;;;;5.03;2.73;;;;;;;;;;5094109;28;20020;-86
2023/01/28 03:47:13;;;;;;;5.87;2.63;;;;;;;;;;5087885;28;20027;-87
2023/01/28 03:49:39;;;;;;;7.23;2.30;;;;;;;;;;5079241;28;20016;-87
2023/01/28 03:52:05;;;;;;;7.53;2.70;;;;;;;;;;5094156;28;20027;-87
2023/01/28 03:54:30;;;;;;;7.57;2.30;;;;;;;;;;5093750;28;20024;-87
2023/01/28 03:56:55;;;;;;;6.23;1.90;;;;;;;;;;5094066;28;20031;-87
2023/01/28 03:59:20;;;;;;;8.10;2.33;;;;;;;;;;5091269;28;20119;-87
2023/01/28 04:01:45;;;;;;;8.80;2.47;;;;;;;;;;5090113;28;20020;-87
2023/01/28 04:04:21;;;;;;;8.77;3.00;;;;;;;;;;5093751;28;20112;-87
2023/01/28 04:06:47;;;;;;;7.17;2.53;;;;;;;;;;5079535;28;20102;-86
2023/01/28 04:09:12;;;;;;;7.93;2.47;;;;;;;;;;5093826;28;20519;-86
2023/01/28 04:11:37;;;;;;;6.90;2.80;;;;;;;;;;5088118;28;20123;-86
2023/01/28 04:14:02;;;;;;;8.03;2.83;;;;;;;;;;5092815;28;20034;-87
2023/01/28 04:16:28;;;;;;;6.67;2.67;;;;;;;;;;5093915;28;20028;-87
2023/01/28 04:18:53;;;;;;;8.37;2.37;;;;;;;;;;5093301;28;20461;-87
2023/01/28 04:21:18;;;;;;;4.93;2.70;;;;;;;;;;5092526;28;20070;-86
2023/01/28 04:23:43;;;;;;;5.93;2.43;;;;;;;;;;5084933;28;20042;-87
2023/01/28 04:26:09;;;;;;;6.70;2.60;;;;;;;;;;5093241;28;20160;-86
2023/01/28 04:28:34;;;;;;;7.07;2.63;;;;;;;;;;5080303;28;20078;-87
2023/01/28 04:30:59;;;;;;;5.60;2.60;;;;;;;;;;5093471;28;20024;-87
2023/01/28 04:33:24;;;;;;;8.03;3.13;;;;;;;;;;5083835;28;20424;-86
2023/01/28 04:35:50;;;;;;;6.40;2.73;;;;;;;;;;5093348;28;20464;-86
2023/01/28 04:38:15;;;;;;;8.73;2.97;;;;;;;;;;5093558;28;20085;-87
2023/01/28 04:40:40;;;;;;;5.73;2.40;;;;;;;;;;5093011;28;20024;-87
2023/01/28 04:43:05;;;;;;;7.80;2.87;;;;;;;;;;5082949;28;20024;-86
2023/01/28 04:45:30;;;;;;;6.90;2.93;;;;;;;;;;5093064;28;20028;-86
2023/01/28 04:47:56;;;;;;;5.00;2.07;;;;;;;;;;5094094;28;20012;-86
2023/01/28 04:50:21;;;;;;;6.13;2.77;;;;;;;;;;5094188;28;20014;-86
2023/01/28 04:52:46;;;;;;;9.27;2.40;;;;;;;;;;5092853;28;20352;-86
2023/01/28 04:55:11;;;;;;;9.10;2.63;;;;;;;;;;5075550;28;20357;-86
2023/01/28 04:57:37;;;;;;;8.00;2.70;;;;;;;;;;5086729;28;20024;-86
2023/01/28 05:00:02;;;;;;;8.43;2.87;;;;;;;;;;5089880;28;20459;-86
2023/01/28 05:02:28;;;;;;;5.57;2.10;;;;;;;;;;5092699;28;20146;-86
2023/01/28 05:04:53;;;;;;;6.37;2.43;;;;;;;;;;5092798;28;20169;-86
2023/01/28 05:07:18;;;;;;;7.63;2.00;;;;;;;;;;5077167;28;20095;-86
2023/01/28 05:09:43;;;;;;;8.17;3.23;;;;;;;;;;5072459;28;20502;-86
2023/01/28 05:12:08;;;;;;;7.43;2.40;;;;;;;;;;5090226;28;20020;-86
2023/01/28 05:14:33;;;;;;;6.77;2.80;;;;;;;;;;5092628;28;20035;-86
2023/01/28 05:17:01;;;;;;;6.93;2.47;;;;;;;;;;5093609;28;20018;-86
2023/01/28 05:19:26;;;;;;;6.83;3.07;;;;;;;;;;5074480;28;20451;-87
2023/01/28 05:21:51;;;;;;;7.87;2.87;;;;;;;;;;5081491;28;20116;-87
2023/01/28 05:24:16;;;;;;;8.70;3.07;;;;;;;;;;5086261;28;20013;-87
2023/01/28 05:26:42;;;;;;;6.63;2.70;;;;;;;;;;5072058;28;20452;-87
2023/01/28 05:29:07;;;;;;;7.00;3.10;;;;;;;;;;5087473;28;20019;-86
2023/01/28 05:31:32;;;;;;;8.47;2.70;;;;;;;;;;5082926;28;20028;-86
2023/01/28 05:33:58;;;;;;;7.77;3.03;;;;;;;;;;5090494;28;20347;-86
2023/01/28 05:36:23;;;;;;;8.00;2.83;;;;;;;;;;5079340;28;20012;-86
2023/01/28 05:38:48;;;;;;;10.13;4.00;;;;;;;;;;5093521;28;20020;-86
2023/01/28 05:41:13;;;;;;;8.53;3.37;;;;;;;;;;5089338;28;20505;-87
2023/01/28 05:43:38;;;;;;;10.73;4.23;;;;;;;;;;5082918;28;20110;-86
2023/01/28 05:46:04;;;;;;;8.40;3.37;;;;;;;;;;5078620;28;20106;-86
2023/01/28 05:48:29;;;;;;;8.20;3.27;;;;;;;;;;5091907;28;20020;-87
2023/01/28 05:50:54;;;;;;;8.30;2.90;;;;;;;;;;5091840;28;20027;-87
2023/01/28 05:53:20;;;;;;;7.17;2.97;;;;;;;;;;5088806;28;20066;-86
2023/01/28 05:55:49;;;;;;;7.57;2.83;;;;;;;;;;5084125;28;20065;-86
2023/01/28 05:58:15;;;;;;;6.93;2.80;;;;;;;;;;5091238;28;20368;-86
2023/01/28 06:00:40;;;;;;;8.13;3.40;;;;;;;;;;5093096;28;20124;-87
2023/01/28 06:03:05;;;;;;;9.70;3.13;;;;;;;;;;5078130;28;20025;-87
2023/01/28 06:05:30;;;;;;;6.47;3.17;;;;;;;;;;5086431;28;20081;-86
2023/01/28 06:07:55;;;;;;;9.27;3.50;;;;;;;;;;5082489;28;20019;-86
2023/01/28 06:10:21;;;;;;;7.50;3.43;;;;;;;;;;5092637;28;20095;-86
2023/01/28 06:12:46;;;;;;;6.73;2.53;;;;;;;;;;5091417;28;20016;-86
2023/01/28 06:15:11;;;;;;;5.70;2.47;;;;;;;;;;5091463;28;20036;-86
2023/01/28 06:17:36;;;;;;;6.83;2.83;;;;;;;;;;5077350;28;20092;-87
2023/01/28 06:20:02;;;;;;;6.77;2.50;;;;;;;;;;5092659;28;20028;-86
2023/01/28 06:22:27;;;;;;;7.60;2.67;;;;;;;;;;5091223;28;20111;-87
2023/01/28 06:24:52;;;;;;;7.33;3.07;;;;;;;;;;5091163;28;20111;-86
2023/01/28 06:27:18;;;;;;;7.07;2.63;;;;;;;;;;5078790;28;20111;-87
2023/01/28 06:29:43;;;;;;;7.07;2.57;;;;;;;;;;5091235;28;20016;-86
2023/01/28 06:32:08;;;;;;;8.40;3.17;;;;;;;;;;5091240;28;20475;-86
2023/01/28 06:34:33;;;;;;;7.10;2.73;;;;;;;;;;5091283;28;20089;-86
2023/01/28 06:36:58;;;;;;;6.13;2.70;;;;;;;;;;5092754;28;20506;-87
2023/01/28 06:39:25;;;;;;;7.07;2.67;;;;;;;;;;5080552;28;20479;-86
2023/01/28 06:41:51;;;;;;;8.00;3.30;;;;;;;;;;5091123;28;20024;-86
2023/01/28 06:44:16;;;;;;;4.73;2.23;;;;;;;;;;5089484;28;20021;-86
2023/01/28 06:46:41;;;;;;;6.37;2.53;;;;;;;;;;5068476;28;20019;-87
2023/01/28 06:49:07;;;;;;;10.43;2.83;;;;;;;;;;5091005;28;20027;-86
2023/01/28 06:51:32;;;;;;;7.57;2.60;;;;;;;;;;5080412;28;20016;-87
2023/01/28 06:53:57;;;;;;;8.37;2.43;;;;;;;;;;5079291;28;20036;-86
2023/01/28 06:56:22;;;;;;;6.43;1.97;;;;;;;;;;5074772;28;20024;-87
2023/01/28 06:58:48;;;;;;;8.50;3.17;;;;;;;;;;5092209;28;20026;-86
2023/01/28 07:01:13;;;;;;;5.90;2.50;;;;;;;;;;5091071;28;20120;-87
2023/01/28 07:03:38;;;;;;;7.17;2.13;;;;;;;;;;5085889;28;20318;-86
2023/01/28 07:06:04;;;;;;;8.17;2.90;;;;;;;;;;5080670;28;20378;-87
2023/01/28 07:08:29;;;;;;;7.27;2.97;;;;;;;;;;5091012;28;20428;-87
2023/01/28 07:10:54;;;;;;;6.63;2.60;;;;;;;;;;5083506;28;20016;-87
2023/01/28 07:13:19;;;;;;;6.03;2.70;;;;;;;;;;5084384;28;20016;-87
2023/01/28 07:15:45;;;;;;;6.07;2.47;;;;;;;;;;5075963;28;20016;-87
2023/01/28 07:18:10;;;;;;;5.57;2.40;;;;;;;;;;5090804;28;20081;-86
2023/01/28 07:20:35;;;;;;;5.50;2.63;;;;;;;;;;5088357;28;20028;-87
2023/01/28 07:23:00;;;;;;;7.90;3.33;;;;;;;;;;5081059;28;20085;-86
2023/01/28 07:25:25;;;;;;;8.80;3.40;;;;;;;;;;5075426;28;20044;-87
2023/01/28 07:27:51;;;;;;;7.13;3.17;;;;;;;;;;5076964;28;20450;-87
2023/01/28 07:30:17;;;;;;;6.23;2.50;;;;;;;;;;5077459;28;20019;-87
2023/01/28 07:32:43;;;;;;;13.57;3.47;;;;;;;;;;5089560;28;20025;-87
2023/01/28 07:35:08;;;;;;;4.90;2.07;;;;;;;;;;5079458;28;20115;-86
2023/01/28 07:37:33;;;;;;;5.60;2.43;;;;;;;;;;5088861;28;20020;-87
2023/01/28 07:39:58;;;;;;;6.73;2.77;;;;;;;;;;5082979;28;20023;-87
2023/01/28 07:42:26;;;;;;;5.80;2.40;;;;;;;;;;5077635;28;20125;-86
2023/01/28 07:44:51;;;;;;;5.13;2.53;;;;;;;;;;5083692;28;20017;-86
2023/01/28 07:47:16;;;;;;;7.03;2.80;;;;;;;;;;5084895;28;20008;-87
2023/01/28 07:49:41;;;;;;;7.77;3.47;;;;;;;;;;5078198;28;20050;-86
2023/01/28 07:52:07;;;;;;;5.97;2.73;;;;;;;;;;5083130;28;20475;-86
2023/01/28 07:54:32;;;;;;;6.83;2.57;;;;;;;;;;5090382;28;20048;-86
2023/01/28 07:56:57;;;;;;;5.13;2.03;;;;;;;;;;5091412;28;20123;-87
2023/01/28 07:59:23;;;;;;;4.13;1.90;;;;;;;;;;5093935;28;20016;-88
2023/01/28 08:01:48;;;;;;;6.10;2.60;;;;;;;;;;5093768;28;20027;-87
2023/01/28 08:04:13;;;;;;;6.27;2.63;;;;;;;;;;5084383;28;20020;-87
2023/01/28 08:06:38;;;;;;;6.17;2.70;;;;;;;;;;5079740;28;20017;-87
2023/01/28 08:09:05;;;;;;;6.67;2.40;;;;;;;;;;5095255;28;20019;-87
2023/01/28 08:11:30;;;;;;;7.63;2.50;;;;;;;;;;5093657;28;20032;-86
2023/01/28 08:13:56;;;;;;;6.10;2.83;;;;;;;;;;5094989;28;20024;-86
2023/01/28 08:16:21;;;;;;;7.53;2.27;;;;;;;;;;5084194;28;20024;-87
2023/01/28 08:18:46;;;;;;;7.30;2.70;;;;;;;;;;5093497;28;20070;-87
2023/01/28 08:21:11;;;;;;;5.60;2.57;;;;;;;;;;5084496;28;20020;-88
2023/01/28 08:23:36;;;;;;;6.27;2.87;;;;;;;;;;5088286;28;20020;-87
2023/01/28 08:26:02;;;;;;;7.10;2.77;;;;;;;;;;5083790;28;20017;-88
2023/01/28 08:28:27;;;;;;;9.30;3.17;;;;;;;;;;5086009;28;20016;-88
2023/01/28 08:30:52;;;;;;;5.73;2.53;;;;;;;;;;5074286;28;20474;-88
2023/01/28 08:33:18;;;;;;;7.67;3.00;;;;;;;;;;5077189;28;20078;-88
2023/01/28 08:35:44;;;;;;;8.00;2.60;;;;;;;;;;5073021;28;20040;-88
2023/01/28 08:38:10;;;;;;;7.97;2.53;;;;;;;;;;5073633;28;20024;-88
2023/01/28 08:40:35;;;;;;;4.00;2.00;;;;;;;;;;5088020;28;20436;-83
2023/01/28 08:43:01;;;;;;;7.77;2.73;;;;;;;;;;5090183;28;20126;-87
2023/01/28 08:45:27;;;;;;;4.23;1.77;;;;;;;;;;5073764;28;20021;-88
2023/01/28 08:48:03;;;;;;;5.53;2.23;;;;;;;;;;5089123;28;20359;-88
2023/01/28 08:50:36;;;;;;;5.63;2.73;;;;;;;;;;5077239;28;20472;-89
2023/01/28 08:53:03;;;;;;;5.13;2.40;;;;;;;;;;5078313;28;20092;-88
2023/01/28 08:55:29;;;;;;;5.67;2.13;;;;;;;;;;5081781;28;20558;-88
2023/01/28 08:57:54;;;;;;;5.70;2.33;;;;;;;;;;5072551;28;20052;-88
2023/01/28 09:00:22;;;;;;;6.40;2.37;;;;;;;;;;5067764;28;20021;-88
2023/01/28 09:02:51;;;;;;;5.63;2.00;;;;;;;;;;5065937;28;20024;-88
2023/01/28 09:05:17;;;;;;;7.10;2.80;;;;;;;;;;5082315;28;20019;-87
2023/01/28 09:07:42;;;;;;;6.50;2.63;;;;;;;;;;5079265;28;20009;-88
2023/01/28 09:10:07;;;;;;;5.63;2.40;;;;;;;;;;5085173;28;20031;-88
2023/01/28 09:12:32;;;;;;;5.63;2.07;;;;;;;;;;5087027;28;20020;-88
2023/01/28 09:14:58;;;;;;;5.27;2.63;;;;;;;;;;5078923;28;20077;-87
2023/01/28 09:17:23;;;;;;;5.57;2.10;;;;;;;;;;5089459;28;20157;-87
2023/01/28 09:19:48;;;;;;;4.83;1.90;;;;;;;;;;5074079;28;20101;-88
2023/01/28 09:22:14;;;;;;;4.57;2.13;;;;;;;;;;5070090;28;20032;-87
2023/01/28 09:24:39;;;;;;;5.03;2.00;;;;;;;;;;5080154;28;20020;-88
2023/01/28 09:27:04;;;;;;;5.13;2.20;;;;;;;;;;5074150;28;20021;-87
2023/01/28 09:29:29;;;;;;;5.27;2.17;;;;;;;;;;5091793;28;20015;-88
2023/01/28 09:31:54;;;;;;;6.60;2.27;;;;;;;;;;5072322;28;20349;-87
2023/01/28 09:34:20;;;;;;;2.97;1.53;;;;;;;;;;5089460;28;20009;-87
2023/01/28 09:36:45;;;;;;;4.40;1.67;;;;;;;;;;5078060;28;20028;-88
2023/01/28 09:39:10;;;;;;;3.93;1.87;;;;;;;;;;5081820;28;20410;-88
2023/01/28 09:41:54;;;;;;;4.93;2.23;;;;;;;;;;5083493;28;20027;-88
2023/01/28 09:44:20;;;;;;;3.10;1.30;;;;;;;;;;5087159;28;20085;-88
2023/01/28 09:46:45;;;;;;;5.20;2.00;;;;;;;;;;5079540;28;20031;-87
2023/01/28 09:49:19;;;;;;;6.97;2.27;;;;;;;;;;5080189;28;20019;-88
2023/01/28 09:51:47;;;;;;;4.70;2.03;;;;;;;;;;5073356;28;20403;-87
2023/01/28 09:54:33;;;;;;;5.03;2.15;;;;;;;;;;5076000;28;20115;-88
2023/01/28 09:57:06;;;;;;;5.53;2.23;;;;;;;;;;5074184;28;20170;-88
2023/01/28 09:59:35;;;;;;;10.23;1.97;;;;;;;;;;5083418;28;20370;-88
2023/01/28 10:02:18;;;;;;;7.70;2.77;;;;;;;;;;5088055;28;20024;-88
2023/01/28 10:05:07;;;;;;;7.63;2.77;;;;;;;;;;5084477;28;20423;-88
2023/01/28 10:07:41;;;;;;;8.03;2.80;;;;;;;;;;5066252;28;20036;-88
2023/01/28 10:10:12;;;;;;;4.30;1.83;;;;;;;;;;5086662;28;20077;-88
2023/01/28 10:12:53;;;;;;;5.23;2.43;;;;;;;;;;5078404;28;20031;-88
2023/01/28 10:15:37;;;;;;;6.97;2.70;;;;;;;;;;5077497;28;20027;-88
2023/01/28 10:18:06;;;;;;;7.43;3.00;;;;;;;;;;5089557;28;20118;-88
2023/01/28 10:20:35;;;;;;;5.73;2.30;;;;;;;;;;5082644;28;20036;-87
2023/01/28 10:23:00;;;;;;;6.10;1.87;;;;;;;;;;5082489;28;20450;-87
2023/01/28 10:25:28;;;;;;;5.57;2.27;;;;;;;;;;5081182;28;20099;-88
2023/01/28 10:27:53;;;;;;;6.40;2.50;;;;;;;;;;5093060;28;20027;-88
2023/01/28 10:30:25;;;;;;;6.87;2.20;;;;;;;;;;5073335;28;20017;-88
2023/01/28 10:33:04;;;;;;;4.03;1.85;;;;;;;;;;5076721;28;20020;-88
2023/01/28 10:35:36;;;;;;;4.33;2.00;;;;;;;;;;5071820;28;20085;-87
2023/01/28 10:38:06;;;;;;;5.80;2.15;;;;;;;;;;5076942;28;20024;-86
2023/01/28 10:40:31;;;;;;;5.03;2.53;;;;;;;;;;5085456;28;20028;-86
2023/01/28 10:42:56;;;;;;;5.60;2.40;;;;;;;;;;5079623;28;20013;-86
2023/01/28 10:45:27;;;;;;;12.80;3.37;;;;;;;;;;5076849;28;20028;-86
2023/01/28 10:48:02;;;;;;;7.33;3.63;;;;;;;;;;5069961;28;20119;-85
2023/01/28 10:50:28;;;;;;;7.40;3.17;;;;;;;;;;5080794;28;20020;-86
2023/01/28 10:52:57;;;;;;;8.97;3.23;;;;;;;;;;5078725;28;20031;-85
2023/01/28 10:55:25;;;;;;;8.60;3.63;;;;;;;;;;5086419;28;20086;-85
2023/01/28 10:57:51;;;;;;;12.50;4.70;;;;;;;;;;5083712;28;20090;-85
2023/01/28 11:00:22;;;;;;;7.13;2.60;;;;;;;;;;5075096;28;20112;-85
2023/01/28 11:02:48;;;;;;;8.83;3.40;;;;;;;;;;5079231;28;20043;-85
2023/01/28 11:05:14;;;;;;;6.13;2.33;;;;;;;;;;5078117;28;20115;-87
2023/01/28 11:07:39;;;;;;;5.73;2.50;;;;;;;;;;5079707;28;20016;-88
2023/01/28 11:10:23;;;;;;;5.53;2.83;;;;;;;;;;5078167;28;20130;-88
2023/01/28 11:12:53;;;;;;;8.57;3.50;;;;;;;;;;5076647;28;20077;-87
2023/01/28 11:15:18;;;;;;;6.60;2.90;;;;;;;;;;5089331;28;20024;-88
2023/01/28 11:17:48;;;;;;;9.23;3.10;;;;;;;;;;5059968;28;20390;-88
2023/01/28 11:20:20;;;;;;;11.97;4.13;;;;;;;;;;5085096;28;20028;-87
2023/01/28 11:22:46;;;;;;;;;;;;;;;;;;5071158;28;20437;-88
2023/01/28 11:25:17;;;;;;;9.90;3.40;;;;;;;;;;5083145;28;20005;-87
2023/01/28 11:27:46;;;;;;;6.23;2.27;;;;;;;;;;5080862;28;20289;-84
2023/01/28 11:30:19;;;;;;;9.83;3.50;;;;;;;;;;5069535;28;20029;-85
2023/01/28 11:32:44;;;;;;;9.47;3.73;;;;;;;;;;5073368;28;20119;-86
2023/01/28 11:35:23;;;;;;;9.43;3.30;;;;;;;;;;5074512;28;20142;-86
2023/01/28 11:37:49;;;;;;;8.17;3.73;;;;;;;;;;5083379;28;20028;-87
2023/01/28 11:40:21;;;;;;;9.53;3.80;;;;;;;;;;5094058;28;20107;-86
2023/01/28 11:42:47;;;;;;;10.30;3.80;;;;;;;;;;5074004;28;20031;-87
2023/01/28 11:45:17;;;;;;;9.23;3.27;;;;;;;;;;5071294;28;20021;-87
2023/01/28 11:47:52;;;;;;;10.87;3.87;;;;;;;;;;5080548;28;20108;-87
2023/01/28 11:50:34;;;;;;;9.13;3.50;;;;;;;;;;5083595;28;20116;-86
2023/01/28 11:53:06;;;;;;;7.97;3.20;;;;;;;;;;5081475;28;20022;-86
2023/01/28 11:55:31;;;;;;;7.07;2.93;;;;;;;;;;5080543;28;20091;-86
2023/01/28 11:57:59;;;;;;;8.47;3.50;;;;;;;;;;5090884;28;20024;-87
2023/01/28 12:00:28;;;;;;;6.60;2.60;;;;;;;;;;5095150;28;20024;-86
2023/01/28 12:03:03;;;;;;;8.37;2.97;;;;;;;;;;5084620;28;20032;-86
2023/01/28 12:05:36;;;;;;;6.83;3.23;;;;;;;;;;5081524;28;20012;-83
2023/01/28 12:08:08;;;;;;;5.60;2.43;;;;;;;;;;5090504;28;20028;-84
2023/01/28 12:10:40;;;;;;;7.72;3.15;;;;;;;;;;5078640;28;20035;-83
2023/01/28 12:13:14;;;;;;;8.30;2.93;;;;;;;;;;5084025;28;20070;-83
2023/01/28 12:15:46;;;;;;;6.80;2.90;;;;;;;;;;5088105;28;20085;-84
2023/01/28 12:18:11;;;;;;;;;;;;;;;;;;5072648;28;20031;-83
2023/01/28 12:20:37;;;;;;;6.80;2.43;;;;;;;;;;5071919;28;19912;-82
2023/01/28 12:23:03;;;;;;;7.00;2.90;;;;;;;;;;5062689;28;20360;-88
2023/01/28 12:25:28;;;;;;;7.20;2.87;;;;;;;;;;5088556;28;20103;-82
2023/01/28 12:28:11;;;;;;;8.53;2.70;;;;;;;;;;5088261;28;20376;-82
2023/01/28 12:30:42;;;;;;;13.30;4.73;;;;;;;;;;5079037;28;20357;-82
2023/01/28 12:33:43;;;;;;;10.13;3.90;;;;;;;;;;5071994;28;20324;-81
2023/01/28 12:36:27;;;;;;;8.20;3.43;;;;;;;;;;5031182;28;20079;-81
2023/01/28 12:39:22;;;;;;;8.93;3.63;;;;;;;;;;5101909;27;20337;-81
2023/01/28 12:41:49;;;;;;;5.00;1.93;;;;;;;;;;5000479;28;20149;-85
2023/01/28 12:44:30;;;;;;;6.37;2.67;;;;;;;;;;5074862;28;20040;-86
2023/01/28 12:46:58;;;;;;;8.87;3.57;;;;;;;;;;5064921;28;20025;-90
2023/01/28 12:49:36;;;;;;;7.23;2.80;;;;;;;;;;5087308;28;20162;-89
2023/01/28 12:52:01;;;;;;;4.20;2.17;;;;;;;;;;5084712;28;20017;-88
2023/01/28 12:54:30;;;;;;;4.17;2.20;;;;;;;;;;5076799;28;20356;-89
2023/01/28 12:56:55;;;;;;;8.37;3.63;;;;;;;;;;5078262;28;20036;-88
2023/01/28 12:59:49;;;;;;;9.10;3.43;;;;;;;;;;5088183;28;20023;-88
2023/01/28 13:02:20;;;;;;;9.40;3.47;;;;;;;;;;5073353;28;20367;-87
2023/01/28 13:05:04;;;;;;;9.00;3.77;;;;;;;;;;5077995;28;20031;-83
2023/01/28 13:07:50;;;;;;;6.37;2.80;;;;;;;;;;5070609;28;20104;-84
2023/01/28 13:10:23;;;;;;;5.50;2.13;;;;;;;;;;5075045;28;20477;-86
2023/01/28 13:12:48;;;;;;;8.70;3.00;;;;;;;;;;5079001;28;20020;-86
2023/01/28 13:15:15;;;;;;;9.80;3.50;;;;;;;;;;5086161;28;20024;-83
2023/01/28 13:17:52;;;;;;;8.63;3.90;;;;;;;;;;5077088;28;20104;-86
2023/01/28 13:20:29;;;;;;;6.47;2.90;;;;;;;;;;5072511;28;20025;-84
2023/01/28 13:23:19;;;;;;;8.90;3.03;;;;;;;;;;5081726;28;20555;-84
2023/01/28 13:25:49;;;;;;;7.00;2.87;;;;;;;;;;5086018;28;20114;-87
2023/01/28 13:28:28;;;;;;;10.97;3.53;;;;;;;;;;5086153;28;20020;-85
2023/01/28 13:31:00;;;;;;;11.43;4.57;;;;;;;;;;5092893;28;20015;-86
2023/01/28 13:33:27;;;;;;;11.02;3.95;;;;;;;;;;5080494;28;20078;-86
2023/01/28 13:35:54;;;;;;;11.03;4.00;;;;;;;;;;5078559;28;20467;-85
2023/01/28 13:38:20;;;;;;;8.77;3.13;;;;;;;;;;5090648;28;20176;-86
2023/01/28 13:41:05;;;;;;;10.70;3.80;;;;;;;;;;5092666;28;20103;-85
2023/01/28 13:43:33;;;;;;;8.10;3.00;;;;;;;;;;5082212;28;20055;-79
2023/01/28 13:46:00;;;;;;;10.00;4.03;;;;;;;;;;5072997;28;20364;-86
2023/01/28 13:48:31;;;;;;;8.37;3.77;;;;;;;;;;5071770;28;20117;-84
2023/01/28 13:50:57;;;;;;;9.30;4.07;;;;;;;;;;5075226;28;20020;-85
2023/01/28 13:53:43;;;;;;;9.57;3.87;;;;;;;;;;5087726;28;20036;-86
2023/01/28 13:56:17;;;;;;;8.33;3.60;;;;;;;;;;5090730;28;20085;-86
2023/01/28 13:58:55;;;;;;;10.37;4.13;;;;;;;;;;5075954;28;20489;-86
2023/01/28 14:01:27;;;;;;;10.23;3.63;;;;;;;;;;5092802;28;20201;-86
2023/01/28 14:04:11;;;;;;;10.20;3.65;;;;;;;;;;5088412;28;20020;-85
2023/01/28 14:06:39;;;;;;;10.67;3.97;;;;;;;;;;5085196;28;20043;-86
2023/01/28 14:09:37;;;;;;;11.73;4.53;;;;;;;;;;5091424;28;20048;-86
2023/01/28 14:12:08;;;;;;;9.03;3.57;;;;;;;;;;5069206;28;20032;-86
2023/01/28 14:14:52;;;;;;;10.80;3.83;;;;;;;;;;5083566;28;20089;-86
2023/01/28 14:17:40;;;;;;;9.73;3.73;;;;;;;;;;5085171;28;20024;-86
2023/01/28 14:20:13;;;;;;;12.30;4.47;;;;;;;;;;5084140;28;20027;-86
2023/01/28 14:22:40;;;;;;;11.77;4.13;;;;;;;;;;5091403;28;20114;-86
2023/01/28 14:25:10;;;;;;;9.73;4.30;;;;;;;;;;5081120;28;20044;-86
2023/01/28 14:27:37;;;;;;;7.40;3.37;;;;;;;;;;5091063;28;20020;-85
2023/01/28 14:30:24;;;;;;;10.43;4.17;;;;;;;;;;5090986;28;20020;-86
2023/01/28 14:32:51;;;;;;;15.60;3.63;;;;;;;;;;5085042;28;20025;-86
2023/01/28 14:35:33;;;;;;;12.67;3.93;;;;;;;;;;5071401;28;20510;-86
2023/01/28 14:37:59;;;;;;;9.20;3.67;;;;;;;;;;5065020;28;20440;-85
2023/01/28 14:40:27;;;;;;;10.47;4.27;;;;;;;;;;5090813;28;20119;-86
2023/01/28 14:42:53;;;;;;;9.63;4.30;;;;;;;;;;5090422;28;20016;-86
2023/01/28 14:45:19;;;;;;;10.47;4.40;;;;;;;;;;5072201;28;20108;-86
2023/01/28 14:47:53;;;;;;;14.70;4.33;;;;;;;;;;5074188;28;20091;-85
2023/01/28 14:50:26;;;;;;;9.10;3.70;;;;;;;;;;5090401;28;20020;-86
2023/01/28 14:53:03;;;;;;;12.50;4.13;;;;;;;;;;5076484;28;20024;-86
2023/01/28 14:55:33;;;;;;;10.30;3.97;;;;;;;;;;5090490;28;20021;-86
2023/01/28 14:58:00;;;;;;;9.47;3.77;;;;;;;;;;5091277;28;20515;-86
2023/01/28 15:00:26;;;;;;;11.33;3.60;;;;;;;;;;5077520;28;20465;-86
2023/01/28 15:02:52;;;;;;;11.87;4.47;;;;;;;;;;5090657;28;20028;-86
2023/01/28 15:05:18;;;;;;;8.67;3.67;;;;;;;;;;5090415;28;20012;-86
2023/01/28 15:07:45;;;;;;;9.73;3.47;;;;;;;;;;5094668;28;20008;-86
2023/01/28 15:10:15;;;;;;;11.27;3.90;;;;;;;;;;5092007;28;20017;-86
2023/01/28 15:12:42;;;;;;;11.07;4.43;;;;;;;;;;5094838;28;20047;-86
2023/01/28 15:15:11;;;;;;;10.43;4.57;;;;;;;;;;5094422;28;20024;-86
2023/01/28 15:17:36;;;;;;;14.13;4.57;;;;;;;;;;5094688;28;20027;-86
2023/01/28 15:20:02;;;;;;;11.53;4.00;;;;;;;;;;5094194;28;20103;-86
2023/01/28 15:22:28;;;;;;;9.47;4.13;;;;;;;;;;5089587;28;20035;-85